Time;durP1;ratioP1;P1;durP2;ratioP2;P2;SDS_P1;SDS_P2;PMS_P1;PMS_P2;Temp;Humidity;BMP_temperature;BMP_pressure;BME280_temperature;BME280_humidity;BME280_pressure;Samples;Min_cycle;Max_cycle;Signal;HPM_P1;HPM_P2
2023/01/18 00:02:08;;;;;;;11.15;5.63;;;1.10;83.20;;;;;;5028485;28;20045;-59
2023/01/18 00:04:36;;;;;;;8.93;5.03;;;1.10;83.10;;;;;;5033675;28;20049;-59
2023/01/18 00:07:05;;;;;;;9.93;5.28;;;1.10;83.20;;;;;;5030317;28;20045;-60
2023/01/18 00:09:31;;;;;;;10.13;5.25;;;1.10;83.40;;;;;;5032806;28;20060;-59
2023/01/18 00:11:58;;;;;;;9.77;5.05;;;1.20;83.40;;;;;;5034607;28;20052;-62
2023/01/18 00:14:25;;;;;;;11.68;5.50;;;1.20;83.20;;;;;;5029388;28;20072;-60
2023/01/18 00:16:52;;;;;;;10.98;5.78;;;1.20;83.20;;;;;;5030206;28;20049;-60
2023/01/18 00:19:19;;;;;;;12.20;5.53;;;1.10;83.30;;;;;;5024803;28;20072;-60
2023/01/18 00:21:46;;;;;;;9.80;5.30;;;1.10;83.50;;;;;;5035023;28;20056;-60
2023/01/18 00:24:19;;;;;;;9.55;4.78;;;1.20;83.40;;;;;;5036056;28;20052;-60
2023/01/18 00:26:46;;;;;;;10.38;5.18;;;1.20;83.40;;;;;;5028472;28;20041;-60
2023/01/18 00:29:13;;;;;;;11.02;5.43;;;1.20;83.30;;;;;;5046272;28;20495;-60
2023/01/18 00:31:41;;;;;;;11.25;5.47;;;1.20;83.30;;;;;;5030797;28;20053;-61
2023/01/18 00:34:07;;;;;;;9.55;5.32;;;1.20;83.20;;;;;;5033301;28;20049;-58
2023/01/18 00:36:34;;;;;;;10.93;5.05;;;1.20;83.40;;;;;;5029707;28;20052;-62
2023/01/18 00:39:02;;;;;;;10.40;4.82;;;1.20;83.40;;;;;;5022498;28;20522;-61
2023/01/18 00:41:30;;;;;;;11.95;5.75;;;1.30;83.30;;;;;;5033499;28;20049;-62
2023/01/18 00:43:56;;;;;;;10.95;5.00;;;1.20;83.30;;;;;;5032628;28;20061;-61
2023/01/18 00:46:26;;;;;;;11.88;5.00;;;1.20;83.30;;;;;;5027809;28;20049;-60
2023/01/18 00:48:54;;;;;;;8.67;4.30;;;1.20;83.60;;;;;;5003667;28;20055;-60
2023/01/18 00:51:24;;;;;;;9.90;5.20;;;1.20;83.60;;;;;;5022567;28;20468;-66
2023/01/18 00:53:51;;;;;;;9.40;5.00;;;1.20;83.60;;;;;;5025391;28;20049;-65
2023/01/18 00:56:20;;;;;;;11.95;5.22;;;1.20;83.60;;;;;;5029370;28;20439;-61
2023/01/18 00:58:48;;;;;;;10.68;5.47;;;1.20;83.70;;;;;;5016092;28;20049;-61
2023/01/18 01:01:16;;;;;;;11.13;5.95;;;1.30;83.70;;;;;;5023658;28;20049;-61
2023/01/18 01:06:44;;;;;;;11.15;4.93;;;1.30;83.60;;;;;;5012435;28;20491;-60
2023/01/18 01:09:12;;;;;;;11.00;5.45;;;1.30;83.60;;;;;;5002997;28;20407;-61
2023/01/18 01:11:38;;;;;;;11.77;5.57;;;1.20;83.80;;;;;;5028924;28;20549;-60
2023/01/18 01:27:51;;;;;;;10.00;4.78;;;1.30;83.60;;;;;;5030847;28;20758;-66
2023/01/18 01:30:19;;;;;;;10.88;5.43;;;1.30;83.70;;;;;;5011302;28;20045;-65
2023/01/18 01:32:46;;;;;;;10.40;5.35;;;1.30;83.50;;;;;;5023097;28;20049;-65
2023/01/18 01:35:13;;;;;;;9.88;5.47;;;1.40;83.60;;;;;;5027875;28;21617;-66
2023/01/18 01:37:40;;;;;;;12.52;5.30;;;1.30;83.60;;;;;;5031888;28;20049;-67
2023/01/18 01:40:08;;;;;;;9.65;5.50;;;1.30;83.60;;;;;;5031491;28;20057;-64
2023/01/18 01:42:36;;;;;;;11.63;5.32;;;1.30;83.70;;;;;;5024619;28;20053;-65
2023/01/18 01:45:03;;;;;;;12.00;5.72;;;1.30;83.60;;;;;;5007043;28;20053;-64
2023/01/18 01:47:40;;;;;;;10.50;5.65;;;1.30;83.60;;;;;;4994741;28;20053;-64
2023/01/18 01:50:18;;;;;;;11.98;5.50;;;1.30;83.60;;;;;;5001675;28;20443;-64
2023/01/18 01:52:46;;;;;;;9.93;4.95;;;1.30;83.50;;;;;;4993869;28;20139;-65
2023/01/18 01:55:19;;;;;;;10.30;5.13;;;1.30;83.40;;;;;;4991590;28;20047;-66
2023/01/18 01:57:51;;;;;;;10.90;5.93;;;1.30;83.40;;;;;;5012031;28;20048;-66
2023/01/18 02:00:21;;;;;;;11.10;5.20;;;1.30;83.30;;;;;;5010573;28;20060;-66
2023/01/18 02:02:53;;;;;;;10.98;5.43;;;1.40;83.30;;;;;;4988974;28;20124;-58
2023/01/18 02:05:20;;;;;;;11.45;4.85;;;1.40;83.20;;;;;;5016536;28;20132;-61
2023/01/18 02:07:47;;;;;;;8.90;4.90;;;1.40;83.10;;;;;;5007459;28;20050;-61
2023/01/18 02:10:15;;;;;;;10.23;4.97;;;1.40;83.20;;;;;;5023424;28;20176;-61
2023/01/18 02:12:45;;;;;;;9.15;4.68;;;1.30;83.30;;;;;;5008296;28;20079;-61
2023/01/18 02:15:13;;;;;;;8.27;4.43;;;1.30;83.30;;;;;;5001962;28;20054;-61
2023/01/18 02:18:10;;;;;;;9.77;4.90;;;1.40;83.30;;;;;;4980311;28;20077;-60
2023/01/18 02:21:03;;;;;;;8.93;4.53;;;1.30;83.40;;;;;;5011152;28;20756;-69
2023/01/18 02:23:49;;;;;;;8.90;4.43;;;1.40;83.50;;;;;;5005067;28;20050;-71
2023/01/18 02:27:06;;;;;;;9.48;4.63;;;1.30;83.70;;;;;;4968318;28;20373;-61
2023/01/18 02:29:48;;;;;;;8.38;4.45;;;1.30;83.60;;;;;;4971654;28;20045;-61
2023/01/18 02:32:25;;;;;;;9.00;4.38;;;1.30;83.50;;;;;;5006439;28;20060;-65
2023/01/18 02:35:01;;;;;;;8.95;4.40;;;1.40;83.50;;;;;;5014144;28;20046;-65
2023/01/18 02:37:38;;;;;;;9.52;4.18;;;1.40;83.60;;;;;;4995514;28;20565;-61
2023/01/18 02:40:15;;;;;;;8.48;4.75;;;1.30;83.60;;;;;;4973959;28;20044;-64
2023/01/18 02:48:32;;;;;;;7.90;4.13;;;1.40;83.70;;;;;;5012253;28;20045;-71
2023/01/18 02:50:59;;;;;;;9.27;4.35;;;1.40;83.80;;;;;;5039719;28;20041;-61
2023/01/18 02:53:26;;;;;;;9.07;4.57;;;1.40;83.70;;;;;;5036894;28;20107;-61
2023/01/18 02:55:59;;;;;;;6.82;3.92;;;1.40;83.80;;;;;;5024049;28;20050;-61
2023/01/18 02:58:31;;;;;;;9.30;4.65;;;1.40;83.80;;;;;;5004354;28;20427;-61
2023/01/18 03:01:04;;;;;;;9.57;4.28;;;1.40;83.80;;;;;;5017489;28;20053;-70
2023/01/18 03:03:31;;;;;;;7.80;4.00;;;1.40;83.90;;;;;;5016665;28;20412;-69
2023/01/18 03:06:01;;;;;;;8.93;4.50;;;1.40;84.00;;;;;;5014816;28;20244;-62
2023/01/18 03:08:35;;;;;;;9.73;4.30;;;1.40;83.90;;;;;;5022884;28;20061;-60
2023/01/18 03:11:05;;;;;;;7.55;4.35;;;1.40;83.90;;;;;;5008603;28;20061;-62
2023/01/18 03:13:48;;;;;;;7.63;4.35;;;1.30;83.90;;;;;;5036221;28;20089;-61
2023/01/18 03:16:22;;;;;;;9.45;4.70;;;1.40;84.10;;;;;;5021219;28;20045;-61
2023/01/18 03:19:00;;;;;;;11.70;4.55;;;1.30;84.10;;;;;;5028242;28;20049;-60
2023/01/18 03:21:40;;;;;;;8.48;4.57;;;1.30;84.20;;;;;;5021341;28;20463;-60
2023/01/18 03:24:08;;;;;;;8.93;4.55;;;1.30;84.20;;;;;;5011278;28;20067;-61
2023/01/18 03:26:40;;;;;;;9.25;4.45;;;1.30;84.20;;;;;;5028012;28;20049;-61
2023/01/18 03:34:48;;;;;;;;;;;1.30;84.30;;;;;;5023822;28;20172;-61
2023/01/18 03:37:19;;;;;;;8.13;3.97;;;1.30;84.20;;;;;;5009040;28;19921;-62
2023/01/18 03:39:46;;;;;;;;;;;1.30;84.10;;;;;;5008716;28;20050;-63
2023/01/18 03:42:17;;;;;;;7.57;3.38;;;1.40;84.20;;;;;;5024709;28;20375;-61
2023/01/18 03:44:48;;;;;;;;;;;1.40;84.20;;;;;;5011564;28;20041;-61
2023/01/18 03:47:16;;;;;;;9.63;4.00;;;1.30;84.10;;;;;;5008520;28;19921;-61
2023/01/18 03:49:43;;;;;;;6.32;3.38;;;1.40;84.20;;;;;;5005447;28;20165;-61
2023/01/18 03:52:17;;;;;;;9.77;3.50;;;1.30;84.20;;;;;;5012073;28;20141;-61
2023/01/18 03:54:54;;;;;;;9.90;4.43;;;1.40;84.30;;;;;;5023709;28;20067;-62
2023/01/18 03:57:27;;;;;;;9.55;4.18;;;1.40;84.20;;;;;;4997282;28;20049;-61
2023/01/18 03:59:54;;;;;;;8.27;4.40;;;1.40;84.20;;;;;;5002733;28;20049;-62
2023/01/18 04:02:23;;;;;;;9.32;4.43;;;1.40;84.20;;;;;;4990754;28;20392;-62
2023/01/18 04:04:56;;;;;;;10.25;4.68;;;1.40;84.30;;;;;;5003458;28;20053;-61
2023/01/18 04:07:23;;;;;;;7.55;3.53;;;1.40;84.40;;;;;;5022906;28;20053;-70
2023/01/18 04:09:50;;;;;;;7.65;4.32;;;1.40;84.40;;;;;;5006844;28;20044;-71
2023/01/18 04:12:17;;;;;;;7.78;3.92;;;1.40;84.40;;;;;;5033302;28;20404;-72
2023/01/18 04:14:44;;;;;;;10.20;4.57;;;1.40;84.40;;;;;;5025826;28;20053;-72
2023/01/18 04:17:11;;;;;;;7.80;3.97;;;1.50;84.20;;;;;;5027779;28;20055;-70
2023/01/18 04:19:40;;;;;;;8.73;4.28;;;1.50;84.20;;;;;;4997108;28;20114;-71
2023/01/18 04:22:07;;;;;;;9.63;3.78;;;1.50;84.30;;;;;;5024174;28;20103;-62
2023/01/18 04:24:34;;;;;;;8.63;4.20;;;1.50;84.20;;;;;;5024961;28;20056;-61
2023/01/18 04:27:00;;;;;;;7.15;3.70;;;1.50;84.20;;;;;;5029311;28;20123;-61
2023/01/18 04:29:27;;;;;;;7.75;3.70;;;1.50;84.20;;;;;;5031861;28;20075;-60
2023/01/18 04:31:54;;;;;;;7.70;4.35;;;1.60;84.10;;;;;;5041264;28;20065;-61
2023/01/18 04:34:21;;;;;;;7.65;3.90;;;1.50;84.10;;;;;;5034690;28;20068;-61
2023/01/18 04:36:50;;;;;;;7.20;3.53;;;1.50;84.10;;;;;;5032529;28;20053;-64
2023/01/18 04:39:17;;;;;;;7.13;3.85;;;1.50;84.30;;;;;;5033395;28;20131;-65
2023/01/18 04:41:44;;;;;;;7.85;3.60;;;1.50;84.30;;;;;;5028594;28;20128;-65
2023/01/18 04:44:11;;;;;;;8.18;3.08;;;1.50;84.20;;;;;;5015874;28;20045;-65
2023/01/18 04:46:40;;;;;;;6.72;3.38;;;1.50;84.30;;;;;;5012121;28;20054;-70
2023/01/18 04:49:10;;;;;;;7.43;3.38;;;1.50;84.20;;;;;;5029950;28;20060;-70
2023/01/18 04:51:37;;;;;;;;;;;1.50;84.20;;;;;;5027695;28;20876;-61
2023/01/18 04:54:05;;;;;;;7.35;3.08;;;1.50;84.20;;;;;;5026582;28;20003;-62
2023/01/18 04:56:32;;;;;;;6.68;3.08;;;1.50;84.40;;;;;;5022891;28;20054;-61
2023/01/18 04:59:00;;;;;;;6.22;3.50;;;1.50;84.30;;;;;;5017189;28;20151;-63
2023/01/18 05:01:28;;;;;;;9.73;4.00;;;1.50;84.30;;;;;;5022408;28;20041;-59
2023/01/18 05:03:55;;;;;;;6.97;3.25;;;1.50;84.30;;;;;;5014993;28;20056;-59
2023/01/18 05:06:23;;;;;;;7.85;3.47;;;1.50;84.40;;;;;;4982855;28;20049;-60
2023/01/18 05:08:51;;;;;;;6.53;2.97;;;1.50;84.50;;;;;;5037617;28;20120;-58
2023/01/18 05:11:21;;;;;;;7.53;3.50;;;1.50;84.50;;;;;;5023304;28;20041;-60
2023/01/18 05:13:48;;;;;;;6.35;3.40;;;1.50;84.50;;;;;;5030928;28;20128;-59
2023/01/18 05:16:17;;;;;;;6.95;3.75;;;1.50;84.40;;;;;;5023526;28;20427;-60
2023/01/18 05:18:44;;;;;;;5.82;2.80;;;1.50;84.60;;;;;;5004150;28;20460;-59
2023/01/18 05:21:11;;;;;;;10.80;4.10;;;1.60;84.60;;;;;;5022525;28;20049;-59
2023/01/18 05:23:39;;;;;;;8.80;3.75;;;1.60;84.70;;;;;;5006585;28;20492;-60
2023/01/18 05:26:13;;;;;;;8.93;3.58;;;1.60;84.70;;;;;;5011010;28;20183;-64
2023/01/18 05:28:42;;;;;;;7.72;3.53;;;1.60;84.60;;;;;;5011433;28;20062;-65
2023/01/18 05:31:09;;;;;;;7.10;3.53;;;1.60;84.80;;;;;;5002092;28;20050;-62
2023/01/18 05:33:36;;;;;;;8.23;3.38;;;1.60;84.90;;;;;;5017627;28;20050;-61
2023/01/18 05:36:04;;;;;;;7.05;3.28;;;1.60;84.90;;;;;;4997402;28;20049;-62
2023/01/18 05:38:30;;;;;;;9.07;3.72;;;1.60;85.00;;;;;;5031629;28;20052;-61
2023/01/18 05:40:57;;;;;;;8.13;4.35;;;1.60;85.00;;;;;;5034908;28;20049;-72
2023/01/18 05:43:26;;;;;;;8.68;3.47;;;1.60;85.10;;;;;;5036009;28;20053;-72
2023/01/18 05:45:55;;;;;;;6.43;3.35;;;1.60;85.20;;;;;;5017235;28;20514;-70
2023/01/18 05:48:22;;;;;;;7.63;3.47;;;1.60;85.20;;;;;;5023287;28;20053;-71
2023/01/18 05:50:50;;;;;;;5.43;3.35;;;1.60;85.10;;;;;;5016846;28;20041;-70
2023/01/18 05:53:20;;;;;;;8.43;3.92;;;1.60;85.20;;;;;;5035611;28;20080;-71
2023/01/18 05:55:54;;;;;;;6.68;3.53;;;1.60;85.20;;;;;;5040280;28;20133;-61
2023/01/18 05:58:21;;;;;;;9.02;3.75;;;1.50;85.30;;;;;;4989561;28;20044;-62
2023/01/18 06:00:48;;;;;;;8.02;3.97;;;1.50;85.40;;;;;;5025208;28;20041;-61
2023/01/18 06:03:17;;;;;;;8.00;3.92;;;1.60;85.40;;;;;;5032235;28;20047;-60
2023/01/18 06:05:44;;;;;;;8.13;3.88;;;1.60;85.40;;;;;;5035612;28;20053;-61
2023/01/18 06:08:11;;;;;;;7.97;3.90;;;1.60;85.40;;;;;;5024615;28;20050;-61
2023/01/18 06:10:39;;;;;;;8.13;3.50;;;1.60;85.50;;;;;;5026183;28;20456;-71
2023/01/18 06:13:06;;;;;;;8.60;4.22;;;1.60;85.50;;;;;;5029543;28;20053;-72
2023/01/18 06:15:33;;;;;;;7.13;3.90;;;1.60;85.60;;;;;;5006187;28;20057;-72
2023/01/18 06:18:00;;;;;;;7.28;4.05;;;1.60;85.70;;;;;;5016910;28;20049;-70
2023/01/18 06:20:29;;;;;;;10.18;3.67;;;1.60;85.70;;;;;;5043330;28;20064;-71
2023/01/18 06:22:56;;;;;;;8.90;4.07;;;1.60;85.70;;;;;;5030840;28;20131;-72
2023/01/18 06:25:24;;;;;;;10.35;3.88;;;1.50;85.80;;;;;;5032224;28;20045;-72
2023/01/18 06:27:50;;;;;;;8.23;4.00;;;1.50;86.00;;;;;;5026306;28;20050;-73
2023/01/18 06:30:19;;;;;;;8.95;4.75;;;1.60;86.00;;;;;;5028204;28;20049;-72
2023/01/18 06:32:47;;;;;;;8.32;4.07;;;1.50;86.00;;;;;;5034461;28;20793;-71
2023/01/18 06:35:14;;;;;;;8.90;4.78;;;1.50;86.00;;;;;;5033287;28;20110;-70
2023/01/18 06:37:46;;;;;;;9.70;4.70;;;1.50;86.10;;;;;;5029236;28;20065;-70
2023/01/18 06:40:13;;;;;;;8.25;4.60;;;1.50;86.20;;;;;;5027853;28;20059;-71
2023/01/18 06:42:40;;;;;;;6.78;3.92;;;1.50;86.20;;;;;;5019177;28;20056;-71
2023/01/18 06:45:08;;;;;;;7.15;3.75;;;1.50;86.30;;;;;;5020184;28;20104;-72
2023/01/18 06:47:35;;;;;;;7.38;4.25;;;1.50;86.30;;;;;;5028719;28;20049;-71
2023/01/18 06:50:02;;;;;;;12.63;4.63;;;1.50;86.30;;;;;;5022051;28;20045;-70
2023/01/18 06:52:29;;;;;;;7.25;4.13;;;1.50;86.50;;;;;;5021787;28;20053;-66
2023/01/18 06:54:57;;;;;;;8.02;4.45;;;1.50;86.40;;;;;;5030423;28;20487;-70
2023/01/18 06:57:24;;;;;;;9.13;4.63;;;1.50;86.40;;;;;;5009144;28;20049;-60
2023/01/18 06:59:52;;;;;;;9.90;4.40;;;1.50;86.50;;;;;;5029216;28;20057;-61
2023/01/18 07:02:20;;;;;;;10.60;4.57;;;1.50;86.50;;;;;;5023688;28;20048;-59
2023/01/18 07:04:47;;;;;;;8.85;4.18;;;1.50;86.60;;;;;;5026191;28;20072;-59
2023/01/18 07:07:14;;;;;;;7.53;4.30;;;1.50;86.50;;;;;;5020213;28;20055;-59
2023/01/18 07:09:41;;;;;;;8.85;4.40;;;1.50;86.60;;;;;;5020817;28;20053;-64
2023/01/18 07:12:09;;;;;;;9.98;4.47;;;1.50;86.60;;;;;;5054362;28;20044;-59
2023/01/18 07:14:36;;;;;;;7.63;4.78;;;1.50;86.70;;;;;;5027532;28;20063;-59
2023/01/18 07:17:03;;;;;;;8.68;4.05;;;1.50;86.60;;;;;;5012022;28;20055;-61
2023/01/18 07:19:30;;;;;;;9.27;4.30;;;1.40;86.70;;;;;;5033300;28;20128;-59
2023/01/18 07:21:58;;;;;;;8.20;4.65;;;1.50;86.70;;;;;;5009722;28;20053;-71
2023/01/18 07:24:25;;;;;;;8.48;4.72;;;1.50;86.60;;;;;;5019100;28;20059;-71
2023/01/18 07:26:52;;;;;;;6.82;4.05;;;1.50;86.70;;;;;;5031350;28;20045;-64
2023/01/18 07:29:20;;;;;;;8.88;4.25;;;1.50;86.70;;;;;;5017086;28;20045;-64
2023/01/18 07:31:47;;;;;;;8.98;4.53;;;1.50;86.80;;;;;;5017981;28;20056;-58
2023/01/18 07:34:14;;;;;;;8.55;5.13;;;1.60;86.80;;;;;;5017730;28;20048;-59
2023/01/18 07:36:41;;;;;;;10.98;4.47;;;1.60;86.80;;;;;;5023182;28;20511;-61
2023/01/18 07:39:09;;;;;;;10.98;5.63;;;1.50;86.70;;;;;;5036938;28;20616;-60
2023/01/18 07:41:35;;;;;;;12.00;5.25;;;1.50;86.80;;;;;;5027670;28;20060;-76
2023/01/18 07:44:03;;;;;;;11.30;5.18;;;1.60;86.90;;;;;;5027587;28;20052;-70
2023/01/18 07:46:32;;;;;;;12.05;6.35;;;1.60;86.80;;;;;;5009184;28;20052;-73
2023/01/18 07:49:01;;;;;;;10.32;4.80;;;1.50;86.70;;;;;;5022223;28;20056;-71
2023/01/18 07:51:28;;;;;;;9.23;4.63;;;1.50;86.70;;;;;;5033294;28;20048;-61
2023/01/18 07:53:55;;;;;;;12.63;5.95;;;1.60;86.60;;;;;;5028300;28;20117;-60
2023/01/18 07:56:23;;;;;;;10.85;4.97;;;1.60;86.60;;;;;;5036146;28;20049;-71
2023/01/18 07:58:51;;;;;;;9.65;5.40;;;1.60;86.80;;;;;;5019394;28;20564;-71
2023/01/18 08:01:20;;;;;;;10.40;5.03;;;1.60;86.80;;;;;;5031480;28;20061;-69
2023/01/18 08:03:50;;;;;;;10.15;5.75;;;1.50;86.90;;;;;;5026220;28;20082;-72
2023/01/18 08:06:21;;;;;;;12.37;6.47;;;1.60;86.80;;;;;;5035929;28;20065;-70
2023/01/18 08:08:48;;;;;;;10.40;6.22;;;1.60;86.80;;;;;;4986312;28;20073;-71
2023/01/18 08:11:15;;;;;;;12.07;6.47;;;1.60;86.80;;;;;;5004725;28;20057;-71
2023/01/18 08:13:42;;;;;;;10.38;5.30;;;1.60;86.70;;;;;;5019583;28;20045;-71
2023/01/18 08:16:11;;;;;;;10.88;6.05;;;1.70;86.70;;;;;;5023513;28;20152;-72
2023/01/18 08:18:38;;;;;;;9.68;5.55;;;1.70;86.70;;;;;;5014609;28;20041;-72
2023/01/18 08:21:09;;;;;;;11.40;6.32;;;1.60;86.60;;;;;;5042803;28;20144;-61
2023/01/18 08:23:37;;;;;;;10.90;5.47;;;1.70;86.70;;;;;;5035555;28;20045;-60
2023/01/18 08:26:06;;;;;;;10.02;5.53;;;1.70;86.70;;;;;;5022995;28;20045;-64
2023/01/18 08:28:33;;;;;;;10.82;5.80;;;1.70;86.70;;;;;;5045172;28;20041;-65
2023/01/18 08:31:12;;;;;;;10.88;5.55;;;1.70;86.70;;;;;;5032467;28;20041;-63
2023/01/18 08:33:41;;;;;;;10.32;6.05;;;1.70;86.70;;;;;;5033462;28;20049;-64
2023/01/18 08:36:15;;;;;;;10.50;5.68;;;1.70;86.80;;;;;;5030723;28;20056;-63
2023/01/18 08:38:42;;;;;;;9.75;5.13;;;1.70;86.80;;;;;;5025953;28;20048;-64
2023/01/18 08:41:09;;;;;;;11.45;5.40;;;1.70;86.70;;;;;;5029122;28;20065;-64
2023/01/18 08:43:36;;;;;;;8.50;5.15;;;1.70;86.80;;;;;;5029198;28;20625;-64
2023/01/18 08:46:03;;;;;;;9.88;5.30;;;1.80;86.70;;;;;;5015478;28;20060;-65
2023/01/18 08:48:30;;;;;;;10.82;5.50;;;1.80;86.60;;;;;;5023673;28;20124;-65
2023/01/18 08:51:01;;;;;;;9.63;5.22;;;1.80;86.60;;;;;;5018812;28;20495;-64
2023/01/18 08:53:31;;;;;;;10.30;5.32;;;1.80;86.60;;;;;;5027827;28;20096;-64
2023/01/18 08:55:58;;;;;;;11.25;6.05;;;1.90;86.60;;;;;;5024396;28;20049;-60
2023/01/18 08:58:25;;;;;;;11.38;5.95;;;1.90;86.50;;;;;;5028729;28;20670;-61
2023/01/18 09:00:52;;;;;;;10.15;5.78;;;1.90;86.50;;;;;;5018580;28;20090;-61
2023/01/18 09:03:20;;;;;;;12.90;5.80;;;1.90;86.50;;;;;;5030056;28;20085;-62
2023/01/18 09:05:48;;;;;;;11.52;5.63;;;1.90;86.60;;;;;;5025495;28;20112;-62
2023/01/18 09:08:15;;;;;;;13.50;5.22;;;1.90;86.40;;;;;;5015998;28;20049;-60
2023/01/18 09:10:43;;;;;;;11.18;6.28;;;2.00;86.30;;;;;;5018136;28;20037;-61
2023/01/18 09:13:10;;;;;;;23.75;14.38;;;2.00;86.10;;;;;;5006163;28;20053;-61
2023/01/18 09:15:37;;;;;;;19.52;12.52;;;2.00;86.30;;;;;;5033108;28;20062;-59
2023/01/18 09:18:06;;;;;;;32.47;19.55;;;2.00;86.30;;;;;;5017084;28;20143;-61
2023/01/18 09:20:35;;;;;;;36.33;22.55;;;2.00;86.30;;;;;;5037590;28;20046;-61
2023/01/18 09:23:04;;;;;;;40.28;22.70;;;2.00;86.30;;;;;;5027328;28;20061;-61
2023/01/18 09:25:32;;;;;;;33.13;20.33;;;2.00;86.40;;;;;;5028912;28;20132;-61
2023/01/18 09:28:01;;;;;;;27.92;15.88;;;2.00;86.40;;;;;;5029126;28;20049;-60
2023/01/18 09:30:30;;;;;;;20.80;11.65;;;2.00;86.50;;;;;;5029581;28;20056;-61
2023/01/18 09:32:57;;;;;;;16.88;10.00;;;2.00;86.50;;;;;;5031847;28;20051;-61
2023/01/18 09:35:24;;;;;;;15.25;8.27;;;2.10;86.50;;;;;;5033436;28;20044;-61
2023/01/18 09:37:51;;;;;;;14.43;7.78;;;2.10;86.50;;;;;;5025438;28;20403;-61
2023/01/18 09:40:20;;;;;;;13.63;7.30;;;2.10;86.40;;;;;;5020418;28;20052;-62
2023/01/18 09:42:50;;;;;;;14.00;7.93;;;2.20;86.40;;;;;;5023801;28;20136;-61
2023/01/18 09:45:28;;;;;;;13.43;7.22;;;2.20;86.30;;;;;;5034626;28;20085;-62
2023/01/18 09:48:01;;;;;;;12.88;6.65;;;2.20;86.20;;;;;;5025180;28;20095;-61
2023/01/18 09:50:30;;;;;;;11.18;6.18;;;2.20;86.10;;;;;;5006098;28;20165;-65
2023/01/18 09:53:05;;;;;;;9.18;5.82;;;2.20;86.10;;;;;;5023330;28;20060;-66
2023/01/18 09:55:46;;;;;;;15.57;6.78;;;2.20;86.00;;;;;;5033028;28;20057;-65
2023/01/18 09:58:31;;;;;;;14.15;6.95;;;2.30;86.00;;;;;;5026935;28;20046;-64
2023/01/18 10:01:06;;;;;;;14.20;7.10;;;2.30;85.90;;;;;;5015124;28;20071;-63
2023/01/18 10:03:42;;;;;;;12.80;7.13;;;2.40;85.80;;;;;;5026434;28;20056;-63
2023/01/18 10:06:14;;;;;;;17.50;8.75;;;2.40;85.70;;;;;;5031892;28;20052;-63
2023/01/18 10:08:48;;;;;;;15.15;8.70;;;2.40;85.60;;;;;;5033801;28;20131;-63
2023/01/18 10:11:22;;;;;;;12.80;7.93;;;2.40;85.50;;;;;;5029613;28;20061;-64
2023/01/18 10:13:57;;;;;;;16.15;8.65;;;2.40;85.60;;;;;;5035729;28;20064;-64
2023/01/18 10:16:25;;;;;;;13.73;8.07;;;2.50;85.50;;;;;;5031562;28;20068;-64
2023/01/18 10:18:54;;;;;;;16.77;9.20;;;2.50;85.50;;;;;;5031555;28;20041;-64
2023/01/18 10:21:30;;;;;;;17.75;9.65;;;2.50;85.50;;;;;;5036507;28;20072;-63
2023/01/18 10:24:13;;;;;;;22.13;10.18;;;2.60;85.40;;;;;;5041119;28;20503;-66
2023/01/18 10:26:41;;;;;;;16.55;9.60;;;2.60;85.10;;;;;;5031761;28;20038;-63
2023/01/18 10:29:16;;;;;;;15.68;8.13;;;2.70;85.10;;;;;;5033121;28;20060;-66
2023/01/18 10:31:54;;;;;;;13.13;8.52;;;2.70;85.00;;;;;;5033652;28;20060;-63
2023/01/18 10:34:23;;;;;;;14.20;7.53;;;2.70;84.80;;;;;;5031965;28;20049;-65
2023/01/18 10:36:53;;;;;;;14.48;7.43;;;2.80;84.60;;;;;;5023934;28;20049;-63
2023/01/18 10:39:33;;;;;;;12.95;6.47;;;2.80;84.30;;;;;;5038410;28;20060;-60
2023/01/18 10:42:02;;;;;;;14.90;6.88;;;2.90;84.00;;;;;;5035737;28;20099;-61
2023/01/18 10:44:30;;;;;;;13.68;6.60;;;2.90;83.80;;;;;;5024796;28;20061;-61
2023/01/18 10:47:00;;;;;;;12.07;6.15;;;3.00;83.70;;;;;;5032681;28;20057;-69
2023/01/18 10:49:35;;;;;;;11.00;5.20;;;3.00;83.30;;;;;;5032048;28;20052;-69
2023/01/18 10:52:21;;;;;;;8.93;4.60;;;3.00;82.80;;;;;;5030885;28;20053;-70
2023/01/18 10:54:52;;;;;;;11.27;5.10;;;3.10;82.40;;;;;;5027153;28;20049;-69
2023/01/18 10:57:24;;;;;;;9.07;4.20;;;3.10;82.00;;;;;;5035491;28;20056;-61
2023/01/18 10:59:52;;;;;;;9.55;4.15;;;3.10;81.90;;;;;;5032597;28;20491;-61
2023/01/18 11:02:32;;;;;;;10.05;4.00;;;3.20;81.50;;;;;;5002980;28;20164;-60
2023/01/18 11:05:05;;;;;;;7.82;2.95;;;3.30;81.10;;;;;;5016313;28;20051;-60
2023/01/18 11:07:32;;;;;;;8.35;3.05;;;3.20;81.20;;;;;;5026780;28;20128;-60
2023/01/18 11:10:08;;;;;;;6.90;2.58;;;3.20;80.30;;;;;;5020516;28;20079;-61
2023/01/18 11:12:42;;;;;;;5.20;2.20;;;3.30;80.30;;;;;;5020955;28;20048;-61
2023/01/18 11:15:27;;;;;;;6.70;3.05;;;3.30;80.10;;;;;;5031411;28;20591;-61
2023/01/18 11:18:11;;;;;;;6.22;2.70;;;3.30;80.20;;;;;;5028350;28;20041;-61
2023/01/18 11:20:48;;;;;;;7.28;3.70;;;3.40;80.60;;;;;;5033285;28;20037;-58
2023/01/18 11:23:25;;;;;;;9.05;3.88;;;3.30;80.80;;;;;;5024134;28;20128;-59
2023/01/18 11:25:59;;;;;;;9.90;3.65;;;3.30;81.30;;;;;;5033938;28;20137;-59
2023/01/18 11:28:29;;;;;;;10.15;4.22;;;3.30;81.60;;;;;;5027777;28;20052;-60
2023/01/18 11:31:05;;;;;;;7.70;3.80;;;3.30;81.80;;;;;;5021631;28;20118;-59
2023/01/18 11:33:33;;;;;;;8.43;4.68;;;3.40;82.00;;;;;;5027587;28;20072;-59
2023/01/18 11:36:02;;;;;;;5.50;3.40;;;3.40;82.10;;;;;;5029350;28;20123;-65
2023/01/18 11:38:32;;;;;;;7.50;3.80;;;3.30;82.10;;;;;;5030493;28;20539;-65
2023/01/18 11:41:15;;;;;;;9.90;3.97;;;3.30;81.90;;;;;;5031733;28;20041;-65
2023/01/18 11:43:53;;;;;;;8.40;4.20;;;3.40;81.90;;;;;;5024719;28;20042;-64
2023/01/18 11:46:39;;;;;;;10.80;3.97;;;3.40;82.10;;;;;;5030613;28;20064;-61
2023/01/18 11:49:21;;;;;;;7.82;3.42;;;3.40;81.90;;;;;;5024248;28;20053;-61
2023/01/18 11:51:51;;;;;;;6.78;3.65;;;3.40;82.00;;;;;;5031049;28;20045;-69
2023/01/18 11:54:26;;;;;;;6.55;3.38;;;3.50;81.80;;;;;;5028896;28;20049;-69
2023/01/18 11:56:55;;;;;;;6.88;3.63;;;3.40;82.00;;;;;;5031892;28;20077;-58
2023/01/18 11:59:28;;;;;;;8.75;4.07;;;3.50;81.80;;;;;;5012858;28;20952;-60
2023/01/18 12:02:25;;;;;;;6.22;3.03;;;3.50;81.80;;;;;;5036098;28;20385;-58
2023/01/18 12:05:24;;;;;;;6.53;3.25;;;3.50;81.50;;;;;;5025469;28;20055;-60
2023/01/18 12:08:00;;;;;;;6.72;3.47;;;3.50;81.70;;;;;;5035408;28;20045;-59
2023/01/18 12:10:34;;;;;;;7.50;3.30;;;3.50;81.50;;;;;;5030211;28;21287;-59
2023/01/18 12:13:18;;;;;;;6.43;3.45;;;3.60;81.40;;;;;;5031164;28;20049;-59
2023/01/18 12:15:57;;;;;;;6.15;2.85;;;3.60;81.40;;;;;;5024887;28;20045;-58
2023/01/18 12:18:56;;;;;;;8.63;3.05;;;3.50;81.10;;;;;;5036500;28;20060;-58
2023/01/18 12:21:32;;;;;;;6.25;2.63;;;3.60;81.20;;;;;;5026374;28;20185;-61
2023/01/18 12:24:28;;;;;;;6.35;2.67;;;3.60;80.20;;;;;;5037665;28;20518;-60
2023/01/18 12:26:58;;;;;;;5.70;2.53;;;3.60;80.50;;;;;;5033334;28;20076;-61
2023/01/18 12:29:54;;;;;;;6.10;1.88;;;3.50;79.70;;;;;;5029562;28;20528;-60
2023/01/18 12:32:35;;;;;;;7.65;2.78;;;3.60;80.00;;;;;;5019515;28;20061;-62
2023/01/18 12:35:22;;;;;;;7.93;2.10;;;3.60;79.20;;;;;;5028541;28;20408;-63
2023/01/18 12:38:00;;;;;;;5.00;2.05;;;3.50;79.50;;;;;;5019787;28;20053;-62
2023/01/18 12:40:43;;;;;;;3.38;1.60;;;3.50;79.80;;;;;;5028231;28;20102;-60
2023/01/18 12:43:25;;;;;;;4.22;1.42;;;3.60;78.90;;;;;;5016190;28;20050;-62
2023/01/18 12:46:02;;;;;;;5.15;2.03;;;3.60;78.90;;;;;;5034104;28;20400;-60
2023/01/18 12:48:34;;;;;;;4.40;1.85;;;3.50;78.80;;;;;;5028307;28;20048;-61
2023/01/18 12:51:08;;;;;;;7.60;2.35;;;3.50;77.60;;;;;;5041034;28;21184;-70
2023/01/18 12:53:44;;;;;;;4.82;2.25;;;3.50;77.70;;;;;;5030808;28;20151;-70
2023/01/18 12:56:16;;;;;;;4.55;2.20;;;3.50;78.70;;;;;;5024549;28;20041;-63
2023/01/18 12:58:43;;;;;;;5.63;2.50;;;3.50;78.40;;;;;;5027471;28;20065;-62
2023/01/18 13:01:17;;;;;;;7.15;2.50;;;3.40;77.20;;;;;;5031306;28;20057;-62
2023/01/18 13:03:46;;;;;;;8.88;2.78;;;3.50;76.50;;;;;;5027174;28;20041;-61
2023/01/18 13:06:16;;;;;;;7.43;2.90;;;3.50;77.90;;;;;;5026470;28;20044;-64
2023/01/18 13:08:50;;;;;;;4.75;2.08;;;3.50;76.60;;;;;;5017272;28;20055;-64
2023/01/18 13:11:21;;;;;;;6.68;2.38;;;3.50;76.50;;;;;;5032443;28;20068;-65
2023/01/18 13:13:51;;;;;;;8.52;2.35;;;3.50;76.10;;;;;;5024996;28;20045;-65
2023/01/18 13:16:38;;;;;;;5.88;2.20;;;3.50;76.30;;;;;;5035584;28;20242;-64
2023/01/18 13:19:09;;;;;;;6.03;2.67;;;3.50;76.00;;;;;;5035354;28;20053;-66
2023/01/18 13:21:48;;;;;;;6.13;2.53;;;3.40;76.50;;;;;;5019259;28;20120;-71
2023/01/18 13:24:28;;;;;;;6.80;2.58;;;3.40;77.20;;;;;;5030049;28;20048;-71
2023/01/18 13:27:06;;;;;;;6.03;2.67;;;3.40;76.20;;;;;;5032028;28;20376;-70
2023/01/18 13:29:33;;;;;;;5.88;2.85;;;3.40;77.40;;;;;;5028976;28;20052;-71
2023/01/18 13:32:00;;;;;;;7.28;2.67;;;3.50;75.40;;;;;;5037353;28;20061;-61
2023/01/18 13:34:34;;;;;;;7.05;3.25;;;3.40;76.80;;;;;;5028087;28;20049;-61
2023/01/18 13:37:03;;;;;;;9.95;3.38;;;3.40;77.00;;;;;;5021157;28;20087;-64
2023/01/18 13:39:34;;;;;;;8.95;3.28;;;3.40;77.10;;;;;;5009494;28;21018;-65
2023/01/18 13:42:23;;;;;;;5.07;2.60;;;3.40;77.00;;;;;;5025968;28;20438;-65